sensor_id;sensor_type;location;lat;lon;timestamp;P1;durP1;ratioP1;P2;durP2;ratioP2
3781;SDS011;6881;49.962;7.718;2023-05-10T00:00:52;0.60;;;0.50;;
3781;SDS011;6881;49.962;7.718;2023-05-10T00:03:18;0.67;;;0.50;;
3781;SDS011;6881;49.962;7.718;2023-05-10T00:05:43;0.90;;;0.50;;
3781;SDS011;6881;49.962;7.718;2023-05-10T00:08:08;0.50;;;0.50;;
3781;SDS011;6881;49.962;7.718;2023-05-10T00:10:34;0.60;;;0.57;;
3781;SDS011;6881;49.962;7.718;2023-05-10T00:12:59;0.60;;;0.50;;
3781;SDS011;6881;49.962;7.718;2023-05-10T00:15:24;1.00;;;0.60;;
3781;SDS011;6881;49.962;7.718;2023-05-10T00:17:50;0.50;;;0.50;;
3781;SDS011;6881;49.962;7.718;2023-05-10T00:20:15;0.73;;;0.73;;
3781;SDS011;6881;49.962;7.718;2023-05-10T00:22:41;1.03;;;0.80;;
3781;SDS011;6881;49.962;7.718;2023-05-10T00:25:06;1.37;;;0.80;;
3781;SDS011;6881;49.962;7.718;2023-05-10T00:27:32;1.70;;;1.10;;
3781;SDS011;6881;49.962;7.718;2023-05-10T00:29:58;1.00;;;0.90;;
3781;SDS011;6881;49.962;7.718;2023-05-10T00:32:23;1.17;;;0.83;;
3781;SDS011;6881;49.962;7.718;2023-05-10T00:34:48;1.00;;;0.77;;
3781;SDS011;6881;49.962;7.718;2023-05-10T00:37:14;0.80;;;0.80;;
3781;SDS011;6881;49.962;7.718;2023-05-10T00:39:39;1.20;;;1.10;;
3781;SDS011;6881;49.962;7.718;2023-05-10T00:42:04;1.30;;;1.20;;
3781;SDS011;6881;49.962;7.718;2023-05-10T00:44:30;1.50;;;1.10;;
3781;SDS011;6881;49.962;7.718;2023-05-10T00:46:56;2.20;;;1.10;;
3781;SDS011;6881;49.962;7.718;2023-05-10T00:49:21;1.53;;;1.10;;
3781;SDS011;6881;49.962;7.718;2023-05-10T00:51:46;1.30;;;1.20;;
3781;SDS011;6881;49.962;7.718;2023-05-10T00:54:12;1.37;;;1.27;;
3781;SDS011;6881;49.962;7.718;2023-05-10T00:56:39;1.60;;;1.40;;
3781;SDS011;6881;49.962;7.718;2023-05-10T00:59:05;1.10;;;0.87;;
3781;SDS011;6881;49.962;7.718;2023-05-10T01:01:31;1.20;;;1.10;;
3781;SDS011;6881;49.962;7.718;2023-05-10T01:03:56;1.20;;;1.10;;
3781;SDS011;6881;49.962;7.718;2023-05-10T01:06:23;1.80;;;1.23;;
3781;SDS011;6881;49.962;7.718;2023-05-10T01:08:48;1.87;;;1.47;;
3781;SDS011;6881;49.962;7.718;2023-05-10T01:11:13;3.87;;;1.47;;
3781;SDS011;6881;49.962;7.718;2023-05-10T01:13:41;2.33;;;1.47;;
3781;SDS011;6881;49.962;7.718;2023-05-10T01:16:07;2.13;;;1.40;;
3781;SDS011;6881;49.962;7.718;2023-05-10T01:18:33;2.00;;;1.50;;
3781;SDS011;6881;49.962;7.718;2023-05-10T01:21:10;2.73;;;1.20;;
3781;SDS011;6881;49.962;7.718;2023-05-10T01:23:45;1.83;;;1.30;;
3781;SDS011;6881;49.962;7.718;2023-05-10T01:29:13;1.90;;;1.60;;
3781;SDS011;6881;49.962;7.718;2023-05-10T01:34:44;1.70;;;1.50;;
3781;SDS011;6881;49.962;7.718;2023-05-10T01:37:20;1.50;;;1.40;;
3781;SDS011;6881;49.962;7.718;2023-05-10T01:39:49;5.70;;;3.00;;
3781;SDS011;6881;49.962;7.718;2023-05-10T01:42:26;12.77;;;8.93;;
3781;SDS011;6881;49.962;7.718;2023-05-10T01:45:02;11.93;;;8.43;;
3781;SDS011;6881;49.962;7.718;2023-05-10T01:47:42;7.93;;;6.03;;
3781;SDS011;6881;49.962;7.718;2023-05-10T01:50:09;8.30;;;5.00;;
3781;SDS011;6881;49.962;7.718;2023-05-10T01:52:38;4.77;;;3.97;;
3781;SDS011;6881;49.962;7.718;2023-05-10T01:55:11;5.80;;;4.43;;
3781;SDS011;6881;49.962;7.718;2023-05-10T01:57:40;5.97;;;4.47;;
3781;SDS011;6881;49.962;7.718;2023-05-10T02:00:08;7.23;;;4.43;;
3781;SDS011;6881;49.962;7.718;2023-05-10T02:02:38;5.53;;;4.33;;
3781;SDS011;6881;49.962;7.718;2023-05-10T02:05:05;5.43;;;4.10;;
3781;SDS011;6881;49.962;7.718;2023-05-10T02:07:31;4.70;;;3.70;;
3781;SDS011;6881;49.962;7.718;2023-05-10T02:09:57;3.37;;;3.07;;
3781;SDS011;6881;49.962;7.718;2023-05-10T02:12:23;5.40;;;3.90;;
3781;SDS011;6881;49.962;7.718;2023-05-10T02:14:49;4.80;;;3.67;;
3781;SDS011;6881;49.962;7.718;2023-05-10T02:17:16;3.70;;;2.90;;
3781;SDS011;6881;49.962;7.718;2023-05-10T02:19:41;4.17;;;2.67;;
3781;SDS011;6881;49.962;7.718;2023-05-10T02:22:08;3.60;;;2.53;;
3781;SDS011;6881;49.962;7.718;2023-05-10T02:24:34;4.90;;;3.47;;
3781;SDS011;6881;49.962;7.718;2023-05-10T02:27:00;8.07;;;3.80;;
3781;SDS011;6881;49.962;7.718;2023-05-10T02:29:26;5.17;;;3.63;;
3781;SDS011;6881;49.962;7.718;2023-05-10T02:31:52;4.97;;;3.90;;
3781;SDS011;6881;49.962;7.718;2023-05-10T02:34:20;4.50;;;3.00;;
3781;SDS011;6881;49.962;7.718;2023-05-10T02:36:49;5.07;;;3.67;;
3781;SDS011;6881;49.962;7.718;2023-05-10T02:39:15;4.60;;;3.97;;
3781;SDS011;6881;49.962;7.718;2023-05-10T02:41:42;5.53;;;3.80;;
3781;SDS011;6881;49.962;7.718;2023-05-10T02:44:08;2.87;;;2.50;;
3781;SDS011;6881;49.962;7.718;2023-05-10T02:46:34;5.60;;;3.60;;
3781;SDS011;6881;49.962;7.718;2023-05-10T02:49:00;5.27;;;2.80;;
3781;SDS011;6881;49.962;7.718;2023-05-10T02:51:27;3.17;;;2.83;;
3781;SDS011;6881;49.962;7.718;2023-05-10T02:53:54;5.53;;;3.30;;
3781;SDS011;6881;49.962;7.718;2023-05-10T02:56:28;6.27;;;3.00;;
3781;SDS011;6881;49.962;7.718;2023-05-10T02:58:57;5.77;;;3.47;;
3781;SDS011;6881;49.962;7.718;2023-05-10T03:01:22;8.10;;;4.17;;
3781;SDS011;6881;49.962;7.718;2023-05-10T03:03:48;7.33;;;3.10;;
3781;SDS011;6881;49.962;7.718;2023-05-10T03:06:13;4.80;;;3.47;;
3781;SDS011;6881;49.962;7.718;2023-05-10T03:08:38;6.80;;;3.97;;
3781;SDS011;6881;49.962;7.718;2023-05-10T03:14:04;4.40;;;2.60;;
3781;SDS011;6881;49.962;7.718;2023-05-10T03:16:56;4.80;;;3.87;;
3781;SDS011;6881;49.962;7.718;2023-05-10T03:19:39;5.80;;;3.03;;
3781;SDS011;6881;49.962;7.718;2023-05-10T03:22:10;4.50;;;3.50;;
3781;SDS011;6881;49.962;7.718;2023-05-10T03:24:36;5.90;;;3.50;;
3781;SDS011;6881;49.962;7.718;2023-05-10T03:27:01;6.03;;;4.27;;
3781;SDS011;6881;49.962;7.718;2023-05-10T03:29:29;7.00;;;3.80;;
3781;SDS011;6881;49.962;7.718;2023-05-10T03:31:57;7.40;;;3.77;;
3781;SDS011;6881;49.962;7.718;2023-05-10T03:34:24;5.00;;;4.00;;
3781;SDS011;6881;49.962;7.718;2023-05-10T03:36:50;6.73;;;4.00;;
3781;SDS011;6881;49.962;7.718;2023-05-10T03:39:15;7.57;;;3.40;;
3781;SDS011;6881;49.962;7.718;2023-05-10T03:41:40;6.50;;;4.43;;
3781;SDS011;6881;49.962;7.718;2023-05-10T03:44:06;7.37;;;4.60;;
3781;SDS011;6881;49.962;7.718;2023-05-10T03:46:31;5.10;;;3.87;;
3781;SDS011;6881;49.962;7.718;2023-05-10T03:48:57;4.17;;;3.57;;
3781;SDS011;6881;49.962;7.718;2023-05-10T03:51:22;8.20;;;4.50;;
3781;SDS011;6881;49.962;7.718;2023-05-10T03:53:48;5.53;;;3.90;;
3781;SDS011;6881;49.962;7.718;2023-05-10T03:56:13;6.40;;;4.10;;
3781;SDS011;6881;49.962;7.718;2023-05-10T03:58:39;5.10;;;4.60;;
3781;SDS011;6881;49.962;7.718;2023-05-10T04:01:04;4.97;;;3.70;;
3781;SDS011;6881;49.962;7.718;2023-05-10T04:03:29;7.33;;;4.37;;
3781;SDS011;6881;49.962;7.718;2023-05-10T04:05:58;4.90;;;4.33;;
3781;SDS011;6881;49.962;7.718;2023-05-10T04:08:26;10.20;;;5.40;;
3781;SDS011;6881;49.962;7.718;2023-05-10T04:10:52;5.50;;;4.60;;
3781;SDS011;6881;49.962;7.718;2023-05-10T04:13:17;5.90;;;4.63;;
3781;SDS011;6881;49.962;7.718;2023-05-10T04:15:43;9.67;;;4.67;;
3781;SDS011;6881;49.962;7.718;2023-05-10T04:18:09;6.23;;;4.93;;
3781;SDS011;6881;49.962;7.718;2023-05-10T04:20:35;4.47;;;4.03;;
3781;SDS011;6881;49.962;7.718;2023-05-10T04:23:00;7.03;;;5.10;;
3781;SDS011;6881;49.962;7.718;2023-05-10T04:25:25;7.40;;;5.23;;
3781;SDS011;6881;49.962;7.718;2023-05-10T04:27:51;8.67;;;5.80;;
3781;SDS011;6881;49.962;7.718;2023-05-10T04:30:16;6.60;;;5.20;;
3781;SDS011;6881;49.962;7.718;2023-05-10T04:32:42;8.00;;;4.73;;
3781;SDS011;6881;49.962;7.718;2023-05-10T04:35:07;6.03;;;5.00;;
3781;SDS011;6881;49.962;7.718;2023-05-10T04:37:35;5.80;;;4.70;;
3781;SDS011;6881;49.962;7.718;2023-05-10T04:40:00;9.43;;;6.10;;
3781;SDS011;6881;49.962;7.718;2023-05-10T04:42:26;9.73;;;5.50;;
3781;SDS011;6881;49.962;7.718;2023-05-10T04:44:51;8.10;;;4.60;;
3781;SDS011;6881;49.962;7.718;2023-05-10T04:47:17;8.90;;;5.73;;
3781;SDS011;6881;49.962;7.718;2023-05-10T04:49:42;7.27;;;4.93;;
3781;SDS011;6881;49.962;7.718;2023-05-10T04:52:07;6.53;;;5.50;;
3781;SDS011;6881;49.962;7.718;2023-05-10T04:54:33;8.30;;;4.83;;
3781;SDS011;6881;49.962;7.718;2023-05-10T04:56:59;7.30;;;5.23;;
3781;SDS011;6881;49.962;7.718;2023-05-10T04:59:25;10.33;;;6.73;;
3781;SDS011;6881;49.962;7.718;2023-05-10T05:01:50;10.60;;;7.33;;
3781;SDS011;6881;49.962;7.718;2023-05-10T05:04:16;8.63;;;5.80;;
3781;SDS011;6881;49.962;7.718;2023-05-10T05:06:41;9.47;;;6.83;;
3781;SDS011;6881;49.962;7.718;2023-05-10T05:09:07;8.30;;;6.47;;
3781;SDS011;6881;49.962;7.718;2023-05-10T05:11:32;7.20;;;6.20;;
3781;SDS011;6881;49.962;7.718;2023-05-10T05:13:57;8.23;;;6.00;;
3781;SDS011;6881;49.962;7.718;2023-05-10T05:16:24;9.80;;;6.53;;
3781;SDS011;6881;49.962;7.718;2023-05-10T05:18:50;8.27;;;5.83;;
3781;SDS011;6881;49.962;7.718;2023-05-10T05:21:16;7.47;;;4.60;;
3781;SDS011;6881;49.962;7.718;2023-05-10T05:23:42;5.87;;;4.57;;
3781;SDS011;6881;49.962;7.718;2023-05-10T05:26:07;7.70;;;5.00;;
3781;SDS011;6881;49.962;7.718;2023-05-10T05:28:33;7.83;;;4.93;;
3781;SDS011;6881;49.962;7.718;2023-05-10T05:31:02;8.73;;;6.47;;
3781;SDS011;6881;49.962;7.718;2023-05-10T05:33:27;5.87;;;4.93;;
3781;SDS011;6881;49.962;7.718;2023-05-10T05:35:53;7.10;;;4.80;;
3781;SDS011;6881;49.962;7.718;2023-05-10T05:38:18;7.80;;;5.13;;
3781;SDS011;6881;49.962;7.718;2023-05-10T05:40:44;8.63;;;5.10;;
3781;SDS011;6881;49.962;7.718;2023-05-10T05:43:10;5.70;;;4.60;;
3781;SDS011;6881;49.962;7.718;2023-05-10T05:45:36;22.93;;;14.13;;
3781;SDS011;6881;49.962;7.718;2023-05-10T05:48:01;8.60;;;5.53;;
3781;SDS011;6881;49.962;7.718;2023-05-10T05:50:26;4.73;;;4.20;;
3781;SDS011;6881;49.962;7.718;2023-05-10T05:52:52;3.23;;;2.63;;
3781;SDS011;6881;49.962;7.718;2023-05-10T05:55:17;6.73;;;3.60;;
3781;SDS011;6881;49.962;7.718;2023-05-10T05:57:42;3.67;;;3.37;;
3781;SDS011;6881;49.962;7.718;2023-05-10T06:00:08;5.73;;;3.87;;
3781;SDS011;6881;49.962;7.718;2023-05-10T06:02:33;5.77;;;4.70;;
3781;SDS011;6881;49.962;7.718;2023-05-10T06:04:59;7.83;;;4.00;;
3781;SDS011;6881;49.962;7.718;2023-05-10T06:07:24;6.43;;;3.80;;
3781;SDS011;6881;49.962;7.718;2023-05-10T06:09:50;3.63;;;3.30;;
3781;SDS011;6881;49.962;7.718;2023-05-10T06:12:15;3.90;;;3.20;;
3781;SDS011;6881;49.962;7.718;2023-05-10T06:14:41;4.97;;;2.70;;
3781;SDS011;6881;49.962;7.718;2023-05-10T06:17:06;5.67;;;3.30;;
3781;SDS011;6881;49.962;7.718;2023-05-10T06:19:31;4.50;;;3.80;;
3781;SDS011;6881;49.962;7.718;2023-05-10T06:21:57;4.80;;;3.30;;
3781;SDS011;6881;49.962;7.718;2023-05-10T06:24:22;3.93;;;3.40;;
3781;SDS011;6881;49.962;7.718;2023-05-10T06:26:47;3.77;;;3.40;;
3781;SDS011;6881;49.962;7.718;2023-05-10T06:29:14;4.13;;;2.63;;
3781;SDS011;6881;49.962;7.718;2023-05-10T06:31:40;3.03;;;2.73;;
3781;SDS011;6881;49.962;7.718;2023-05-10T06:34:05;3.07;;;2.33;;
3781;SDS011;6881;49.962;7.718;2023-05-10T06:36:32;4.20;;;2.60;;
3781;SDS011;6881;49.962;7.718;2023-05-10T06:38:58;7.00;;;3.60;;
3781;SDS011;6881;49.962;7.718;2023-05-10T06:41:23;7.30;;;3.40;;
3781;SDS011;6881;49.962;7.718;2023-05-10T06:43:49;5.00;;;2.90;;
3781;SDS011;6881;49.962;7.718;2023-05-10T06:46:14;4.97;;;3.13;;
3781;SDS011;6881;49.962;7.718;2023-05-10T06:48:39;3.47;;;2.97;;
3781;SDS011;6881;49.962;7.718;2023-05-10T06:51:05;3.73;;;3.33;;
3781;SDS011;6881;49.962;7.718;2023-05-10T06:53:30;3.27;;;2.97;;
3781;SDS011;6881;49.962;7.718;2023-05-10T06:55:55;8.30;;;5.80;;
3781;SDS011;6881;49.962;7.718;2023-05-10T06:58:21;4.20;;;3.30;;
3781;SDS011;6881;49.962;7.718;2023-05-10T07:00:46;10.97;;;6.33;;
3781;SDS011;6881;49.962;7.718;2023-05-10T07:03:12;5.83;;;4.37;;
3781;SDS011;6881;49.962;7.718;2023-05-10T07:05:37;6.70;;;3.47;;
3781;SDS011;6881;49.962;7.718;2023-05-10T07:08:02;3.20;;;2.90;;
3781;SDS011;6881;49.962;7.718;2023-05-10T07:10:28;5.90;;;3.40;;
3781;SDS011;6881;49.962;7.718;2023-05-10T07:12:53;7.00;;;4.43;;
3781;SDS011;6881;49.962;7.718;2023-05-10T07:15:19;12.10;;;7.43;;
3781;SDS011;6881;49.962;7.718;2023-05-10T07:17:44;3.93;;;3.17;;
3781;SDS011;6881;49.962;7.718;2023-05-10T07:20:10;5.43;;;2.30;;
3781;SDS011;6881;49.962;7.718;2023-05-10T07:22:36;4.50;;;2.37;;
3781;SDS011;6881;49.962;7.718;2023-05-10T07:25:01;2.13;;;1.93;;
3781;SDS011;6881;49.962;7.718;2023-05-10T07:27:27;3.30;;;2.10;;
3781;SDS011;6881;49.962;7.718;2023-05-10T07:29:52;3.57;;;1.80;;
3781;SDS011;6881;49.962;7.718;2023-05-10T07:32:18;1.90;;;1.70;;
3781;SDS011;6881;49.962;7.718;2023-05-10T07:34:43;2.30;;;1.67;;
3781;SDS011;6881;49.962;7.718;2023-05-10T07:37:08;3.40;;;2.30;;
3781;SDS011;6881;49.962;7.718;2023-05-10T07:39:34;1.87;;;1.77;;
3781;SDS011;6881;49.962;7.718;2023-05-10T07:41:59;2.13;;;1.63;;
3781;SDS011;6881;49.962;7.718;2023-05-10T07:44:24;1.70;;;1.60;;
3781;SDS011;6881;49.962;7.718;2023-05-10T07:46:50;2.27;;;1.83;;
3781;SDS011;6881;49.962;7.718;2023-05-10T07:49:15;3.23;;;1.97;;
3781;SDS011;6881;49.962;7.718;2023-05-10T07:51:41;4.33;;;1.87;;
3781;SDS011;6881;49.962;7.718;2023-05-10T07:54:07;1.50;;;1.40;;
3781;SDS011;6881;49.962;7.718;2023-05-10T07:56:32;4.57;;;2.33;;
3781;SDS011;6881;49.962;7.718;2023-05-10T07:58:59;3.17;;;2.00;;
3781;SDS011;6881;49.962;7.718;2023-05-10T08:01:25;2.40;;;1.90;;
3781;SDS011;6881;49.962;7.718;2023-05-10T08:03:51;4.03;;;2.03;;
3781;SDS011;6881;49.962;7.718;2023-05-10T08:06:18;2.17;;;1.10;;
3781;SDS011;6881;49.962;7.718;2023-05-10T08:08:45;4.73;;;2.80;;
3781;SDS011;6881;49.962;7.718;2023-05-10T08:11:14;3.47;;;2.60;;
3781;SDS011;6881;49.962;7.718;2023-05-10T08:13:40;2.27;;;2.07;;
3781;SDS011;6881;49.962;7.718;2023-05-10T08:16:05;3.27;;;2.97;;
3781;SDS011;6881;49.962;7.718;2023-05-10T08:18:31;3.27;;;2.30;;
3781;SDS011;6881;49.962;7.718;2023-05-10T08:20:56;2.77;;;2.57;;
3781;SDS011;6881;49.962;7.718;2023-05-10T08:23:21;4.43;;;2.93;;
3781;SDS011;6881;49.962;7.718;2023-05-10T08:25:46;3.70;;;2.53;;
3781;SDS011;6881;49.962;7.718;2023-05-10T08:28:12;3.33;;;2.00;;
3781;SDS011;6881;49.962;7.718;2023-05-10T08:30:37;3.00;;;2.10;;
3781;SDS011;6881;49.962;7.718;2023-05-10T08:33:02;3.23;;;1.93;;
3781;SDS011;6881;49.962;7.718;2023-05-10T08:35:28;2.60;;;1.77;;
3781;SDS011;6881;49.962;7.718;2023-05-10T08:37:53;2.43;;;2.23;;
3781;SDS011;6881;49.962;7.718;2023-05-10T08:40:19;2.73;;;1.30;;
3781;SDS011;6881;49.962;7.718;2023-05-10T08:42:47;2.57;;;1.57;;
3781;SDS011;6881;49.962;7.718;2023-05-10T08:45:16;3.27;;;2.23;;
3781;SDS011;6881;49.962;7.718;2023-05-10T08:47:44;2.23;;;2.03;;
3781;SDS011;6881;49.962;7.718;2023-05-10T08:50:09;2.40;;;2.20;;
3781;SDS011;6881;49.962;7.718;2023-05-10T08:52:36;3.63;;;1.83;;
3781;SDS011;6881;49.962;7.718;2023-05-10T08:55:04;5.10;;;3.37;;
3781;SDS011;6881;49.962;7.718;2023-05-10T08:57:29;7.60;;;4.20;;
3781;SDS011;6881;49.962;7.718;2023-05-10T08:59:54;6.27;;;3.53;;
3781;SDS011;6881;49.962;7.718;2023-05-10T09:02:20;2.70;;;1.90;;
3781;SDS011;6881;49.962;7.718;2023-05-10T09:04:46;3.80;;;2.90;;
3781;SDS011;6881;49.962;7.718;2023-05-10T09:07:11;1.93;;;1.47;;
3781;SDS011;6881;49.962;7.718;2023-05-10T09:09:37;3.17;;;2.57;;
3781;SDS011;6881;49.962;7.718;2023-05-10T09:12:03;1.33;;;1.23;;
3781;SDS011;6881;49.962;7.718;2023-05-10T09:14:28;2.10;;;1.40;;
3781;SDS011;6881;49.962;7.718;2023-05-10T09:16:54;1.00;;;0.90;;
3781;SDS011;6881;49.962;7.718;2023-05-10T09:19:20;1.17;;;1.00;;
3781;SDS011;6881;49.962;7.718;2023-05-10T09:21:45;1.23;;;0.73;;
3781;SDS011;6881;49.962;7.718;2023-05-10T09:24:11;2.30;;;1.50;;
3781;SDS011;6881;49.962;7.718;2023-05-10T09:26:45;1.37;;;0.80;;
3781;SDS011;6881;49.962;7.718;2023-05-10T09:29:12;1.20;;;1.07;;
3781;SDS011;6881;49.962;7.718;2023-05-10T09:31:48;1.30;;;1.20;;
3781;SDS011;6881;49.962;7.718;2023-05-10T09:34:18;1.33;;;1.00;;
3781;SDS011;6881;49.962;7.718;2023-05-10T09:37:00;3.20;;;2.20;;
3781;SDS011;6881;49.962;7.718;2023-05-10T09:39:29;2.73;;;1.57;;
3781;SDS011;6881;49.962;7.718;2023-05-10T09:41:56;2.80;;;2.10;;
3781;SDS011;6881;49.962;7.718;2023-05-10T09:44:21;3.73;;;3.33;;
3781;SDS011;6881;49.962;7.718;2023-05-10T09:46:50;1.67;;;0.93;;
3781;SDS011;6881;49.962;7.718;2023-05-10T09:49:17;1.00;;;0.90;;
3781;SDS011;6881;49.962;7.718;2023-05-10T09:51:43;1.37;;;0.87;;
3781;SDS011;6881;49.962;7.718;2023-05-10T09:54:09;1.20;;;1.00;;
3781;SDS011;6881;49.962;7.718;2023-05-10T09:56:36;1.50;;;1.00;;
3781;SDS011;6881;49.962;7.718;2023-05-10T09:59:03;1.33;;;0.83;;
3781;SDS011;6881;49.962;7.718;2023-05-10T10:01:29;1.23;;;1.03;;
3781;SDS011;6881;49.962;7.718;2023-05-10T10:03:55;1.40;;;1.30;;
3781;SDS011;6881;49.962;7.718;2023-05-10T10:06:22;0.97;;;0.87;;
3781;SDS011;6881;49.962;7.718;2023-05-10T10:08:48;1.10;;;1.00;;
3781;SDS011;6881;49.962;7.718;2023-05-10T10:11:13;1.33;;;0.90;;
3781;SDS011;6881;49.962;7.718;2023-05-10T10:13:39;1.77;;;0.97;;
3781;SDS011;6881;49.962;7.718;2023-05-10T10:16:05;1.00;;;0.83;;
3781;SDS011;6881;49.962;7.718;2023-05-10T10:18:30;1.43;;;0.83;;
3781;SDS011;6881;49.962;7.718;2023-05-10T10:20:56;1.40;;;1.00;;
3781;SDS011;6881;49.962;7.718;2023-05-10T10:23:21;0.80;;;0.80;;
3781;SDS011;6881;49.962;7.718;2023-05-10T10:25:46;0.73;;;0.73;;
3781;SDS011;6881;49.962;7.718;2023-05-10T10:31:13;0.80;;;0.67;;
3781;SDS011;6881;49.962;7.718;2023-05-10T10:36:22;0.80;;;0.80;;
3781;SDS011;6881;49.962;7.718;2023-05-10T10:57:27;1.30;;;1.10;;
3781;SDS011;6881;49.962;7.718;2023-05-10T11:02:44;1.23;;;1.13;;
3781;SDS011;6881;49.962;7.718;2023-05-10T11:07:54;1.10;;;1.00;;
3781;SDS011;6881;49.962;7.718;2023-05-10T11:10:21;4.93;;;1.00;;
3781;SDS011;6881;49.962;7.718;2023-05-10T11:13:03;1.60;;;0.90;;
3781;SDS011;6881;49.962;7.718;2023-05-10T11:15:33;0.83;;;0.70;;
3781;SDS011;6881;49.962;7.718;2023-05-10T11:17:59;0.77;;;0.67;;
3781;SDS011;6881;49.962;7.718;2023-05-10T11:20:28;0.70;;;0.70;;
3781;SDS011;6881;49.962;7.718;2023-05-10T11:23:00;1.20;;;0.70;;
3781;SDS011;6881;49.962;7.718;2023-05-10T11:25:40;0.80;;;0.60;;
3781;SDS011;6881;49.962;7.718;2023-05-10T11:28:09;0.70;;;0.60;;
3781;SDS011;6881;49.962;7.718;2023-05-10T11:30:36;0.73;;;0.70;;
3781;SDS011;6881;49.962;7.718;2023-05-10T11:33:03;2.30;;;1.37;;
3781;SDS011;6881;49.962;7.718;2023-05-10T11:35:28;0.97;;;0.70;;
3781;SDS011;6881;49.962;7.718;2023-05-10T11:37:54;1.63;;;1.40;;
3781;SDS011;6881;49.962;7.718;2023-05-10T11:40:21;2.60;;;1.00;;
3781;SDS011;6881;49.962;7.718;2023-05-10T11:42:48;1.13;;;0.90;;
3781;SDS011;6881;49.962;7.718;2023-05-10T11:45:14;1.03;;;0.93;;
3781;SDS011;6881;49.962;7.718;2023-05-10T11:47:39;1.53;;;1.17;;
3781;SDS011;6881;49.962;7.718;2023-05-10T11:50:06;2.10;;;1.43;;
3781;SDS011;6881;49.962;7.718;2023-05-10T11:52:35;2.07;;;1.67;;
3781;SDS011;6881;49.962;7.718;2023-05-10T11:55:02;0.83;;;0.77;;
3781;SDS011;6881;49.962;7.718;2023-05-10T11:57:27;1.47;;;1.20;;
3781;SDS011;6881;49.962;7.718;2023-05-10T11:59:56;2.83;;;1.23;;
3781;SDS011;6881;49.962;7.718;2023-05-10T12:02:22;0.70;;;0.70;;
3781;SDS011;6881;49.962;7.718;2023-05-10T12:04:47;1.93;;;1.17;;
3781;SDS011;6881;49.962;7.718;2023-05-10T12:07:13;1.47;;;0.80;;
3781;SDS011;6881;49.962;7.718;2023-05-10T12:09:43;1.17;;;1.00;;
3781;SDS011;6881;49.962;7.718;2023-05-10T12:12:08;1.20;;;0.80;;
3781;SDS011;6881;49.962;7.718;2023-05-10T12:14:35;0.90;;;0.90;;
3781;SDS011;6881;49.962;7.718;2023-05-10T12:17:00;1.00;;;0.90;;
3781;SDS011;6881;49.962;7.718;2023-05-10T12:19:26;2.30;;;0.80;;
3781;SDS011;6881;49.962;7.718;2023-05-10T12:21:51;1.87;;;1.00;;
3781;SDS011;6881;49.962;7.718;2023-05-10T12:24:16;1.10;;;1.00;;
3781;SDS011;6881;49.962;7.718;2023-05-10T12:26:42;1.20;;;1.10;;
3781;SDS011;6881;49.962;7.718;2023-05-10T12:29:12;1.23;;;1.10;;
3781;SDS011;6881;49.962;7.718;2023-05-10T12:34:26;1.70;;;1.60;;
3781;SDS011;6881;49.962;7.718;2023-05-10T12:36:58;1.57;;;1.47;;
3781;SDS011;6881;49.962;7.718;2023-05-10T12:39:24;2.73;;;1.50;;
3781;SDS011;6881;49.962;7.718;2023-05-10T12:41:50;1.47;;;1.37;;
3781;SDS011;6881;49.962;7.718;2023-05-10T12:44:15;1.93;;;1.47;;
3781;SDS011;6881;49.962;7.718;2023-05-10T12:46:41;1.33;;;1.23;;
3781;SDS011;6881;49.962;7.718;2023-05-10T12:49:06;1.40;;;1.30;;
3781;SDS011;6881;49.962;7.718;2023-05-10T12:51:31;1.67;;;1.30;;
3781;SDS011;6881;49.962;7.718;2023-05-10T12:53:57;1.80;;;1.70;;
3781;SDS011;6881;49.962;7.718;2023-05-10T12:56:22;3.07;;;1.43;;
3781;SDS011;6881;49.962;7.718;2023-05-10T12:58:47;1.70;;;1.37;;
3781;SDS011;6881;49.962;7.718;2023-05-10T13:01:13;1.70;;;1.60;;
3781;SDS011;6881;49.962;7.718;2023-05-10T13:03:39;2.20;;;1.60;;
3781;SDS011;6881;49.962;7.718;2023-05-10T13:06:05;1.30;;;1.20;;
3781;SDS011;6881;49.962;7.718;2023-05-10T13:08:31;2.07;;;1.40;;
3781;SDS011;6881;49.962;7.718;2023-05-10T13:10:58;1.77;;;1.50;;
3781;SDS011;6881;49.962;7.718;2023-05-10T13:13:24;1.50;;;1.40;;
3781;SDS011;6881;49.962;7.718;2023-05-10T13:15:49;1.63;;;1.53;;
3781;SDS011;6881;49.962;7.718;2023-05-10T13:18:15;1.30;;;1.10;;
3781;SDS011;6881;49.962;7.718;2023-05-10T13:20:40;1.77;;;1.30;;
3781;SDS011;6881;49.962;7.718;2023-05-10T13:23:05;2.43;;;1.40;;
3781;SDS011;6881;49.962;7.718;2023-05-10T13:25:31;1.57;;;1.30;;
3781;SDS011;6881;49.962;7.718;2023-05-10T13:27:56;1.53;;;1.20;;
3781;SDS011;6881;49.962;7.718;2023-05-10T13:30:22;1.33;;;1.23;;
3781;SDS011;6881;49.962;7.718;2023-05-10T13:32:48;1.60;;;1.40;;
3781;SDS011;6881;49.962;7.718;2023-05-10T13:35:14;1.47;;;1.27;;
3781;SDS011;6881;49.962;7.718;2023-05-10T13:37:39;1.47;;;1.37;;
3781;SDS011;6881;49.962;7.718;2023-05-10T13:40:05;1.13;;;1.00;;
3781;SDS011;6881;49.962;7.718;2023-05-10T13:42:31;1.77;;;1.40;;
3781;SDS011;6881;49.962;7.718;2023-05-10T13:44:58;1.00;;;0.90;;
3781;SDS011;6881;49.962;7.718;2023-05-10T13:47:23;1.50;;;1.40;;
3781;SDS011;6881;49.962;7.718;2023-05-10T13:49:49;1.40;;;1.23;;
3781;SDS011;6881;49.962;7.718;2023-05-10T13:52:14;2.17;;;1.70;;
3781;SDS011;6881;49.962;7.718;2023-05-10T13:54:40;3.50;;;2.20;;
3781;SDS011;6881;49.962;7.718;2023-05-10T13:57:05;2.83;;;1.60;;
3781;SDS011;6881;49.962;7.718;2023-05-10T13:59:31;1.93;;;1.50;;
3781;SDS011;6881;49.962;7.718;2023-05-10T14:01:57;1.47;;;1.23;;
3781;SDS011;6881;49.962;7.718;2023-05-10T14:04:23;1.73;;;1.63;;
3781;SDS011;6881;49.962;7.718;2023-05-10T14:06:49;1.87;;;1.70;;
3781;SDS011;6881;49.962;7.718;2023-05-10T14:09:14;3.53;;;2.03;;
3781;SDS011;6881;49.962;7.718;2023-05-10T14:11:39;3.00;;;1.50;;
3781;SDS011;6881;49.962;7.718;2023-05-10T14:14:08;2.20;;;1.70;;
3781;SDS011;6881;49.962;7.718;2023-05-10T14:16:36;1.77;;;1.30;;
3781;SDS011;6881;49.962;7.718;2023-05-10T14:19:01;1.83;;;1.30;;
3781;SDS011;6881;49.962;7.718;2023-05-10T14:21:27;1.87;;;1.27;;
3781;SDS011;6881;49.962;7.718;2023-05-10T14:23:54;2.60;;;1.70;;
3781;SDS011;6881;49.962;7.718;2023-05-10T14:26:20;4.60;;;2.10;;
3781;SDS011;6881;49.962;7.718;2023-05-10T14:28:46;4.20;;;1.70;;
3781;SDS011;6881;49.962;7.718;2023-05-10T14:31:11;3.87;;;1.70;;
3781;SDS011;6881;49.962;7.718;2023-05-10T14:33:37;1.83;;;1.63;;
3781;SDS011;6881;49.962;7.718;2023-05-10T14:36:02;1.93;;;1.30;;
3781;SDS011;6881;49.962;7.718;2023-05-10T14:38:28;2.40;;;1.47;;
3781;SDS011;6881;49.962;7.718;2023-05-10T14:40:54;1.30;;;1.20;;
3781;SDS011;6881;49.962;7.718;2023-05-10T14:43:19;2.50;;;1.60;;
3781;SDS011;6881;49.962;7.718;2023-05-10T14:45:45;2.70;;;1.57;;
3781;SDS011;6881;49.962;7.718;2023-05-10T14:48:11;2.87;;;1.40;;
3781;SDS011;6881;49.962;7.718;2023-05-10T14:50:40;1.87;;;1.30;;
3781;SDS011;6881;49.962;7.718;2023-05-10T14:53:05;1.90;;;1.47;;
3781;SDS011;6881;49.962;7.718;2023-05-10T14:55:31;2.80;;;1.50;;
3781;SDS011;6881;49.962;7.718;2023-05-10T14:57:57;3.13;;;2.30;;
3781;SDS011;6881;49.962;7.718;2023-05-10T15:00:23;3.40;;;2.00;;
3781;SDS011;6881;49.962;7.718;2023-05-10T15:02:48;3.20;;;2.30;;
3781;SDS011;6881;49.962;7.718;2023-05-10T15:05:14;3.80;;;2.17;;
3781;SDS011;6881;49.962;7.718;2023-05-10T15:07:39;2.20;;;1.70;;
3781;SDS011;6881;49.962;7.718;2023-05-10T15:10:05;4.73;;;1.50;;
3781;SDS011;6881;49.962;7.718;2023-05-10T15:12:31;5.30;;;1.50;;
3781;SDS011;6881;49.962;7.718;2023-05-10T15:14:56;2.43;;;1.40;;
3781;SDS011;6881;49.962;7.718;2023-05-10T15:17:22;1.30;;;1.20;;
3781;SDS011;6881;49.962;7.718;2023-05-10T15:19:47;1.87;;;1.40;;
3781;SDS011;6881;49.962;7.718;2023-05-10T15:22:14;3.00;;;1.30;;
3781;SDS011;6881;49.962;7.718;2023-05-10T15:24:39;3.33;;;1.47;;
3781;SDS011;6881;49.962;7.718;2023-05-10T15:27:04;3.90;;;1.70;;
3781;SDS011;6881;49.962;7.718;2023-05-10T15:29:30;3.03;;;2.07;;
3781;SDS011;6881;49.962;7.718;2023-05-10T15:31:56;7.10;;;3.23;;
3781;SDS011;6881;49.962;7.718;2023-05-10T15:34:21;3.27;;;1.97;;
3781;SDS011;6881;49.962;7.718;2023-05-10T15:36:47;14.50;;;8.63;;
3781;SDS011;6881;49.962;7.718;2023-05-10T15:39:13;3.77;;;3.00;;
3781;SDS011;6881;49.962;7.718;2023-05-10T15:41:38;5.23;;;2.83;;
3781;SDS011;6881;49.962;7.718;2023-05-10T15:44:04;3.60;;;2.00;;
3781;SDS011;6881;49.962;7.718;2023-05-10T15:46:29;2.43;;;1.77;;
3781;SDS011;6881;49.962;7.718;2023-05-10T15:48:56;3.33;;;2.43;;
3781;SDS011;6881;49.962;7.718;2023-05-10T15:51:22;2.20;;;2.00;;